Time;durP1;ratioP1;P1;durP2;ratioP2;P2;SDS_P1;SDS_P2;PMS_P1;PMS_P2;Temp;Humidity;BMP_temperature;BMP_pressure;BME280_temperature;BME280_humidity;BME280_pressure;Samples;Min_cycle;Max_cycle;Signal;HPM_P1;HPM_P2
2021/04/29 00:01:51;;;;;;;33.92;16.95;;;;;;;10.83;48.00;99226.41;5058149;27;97008;-74
2021/04/29 00:04:17;;;;;;;37.13;18.35;;;;;;;10.78;48.36;99213.50;5058235;27;101398;-74
2021/04/29 00:06:43;;;;;;;39.08;18.52;;;;;;;10.72;47.99;99221.69;5057719;27;100486;-74
2021/04/29 00:09:09;;;;;;;34.78;17.48;;;;;;;10.69;48.26;99219.25;5058945;27;96803;-73
2021/04/29 00:11:35;;;;;;;36.80;18.77;;;;;;;10.76;48.31;99210.13;5050716;27;96881;-74
2021/04/29 00:14:01;;;;;;;37.15;19.10;;;;;;;10.77;48.51;99211.81;5052186;27;101036;-73
2021/04/29 00:16:28;;;;;;;36.25;18.65;;;;;;;10.78;48.28;99208.25;5050536;27;101142;-73
2021/04/29 00:18:53;;;;;;;40.38;18.92;;;;;;;10.72;48.30;99205.94;5037504;27;96613;-74
2021/04/29 00:21:19;;;;;;;32.70;17.10;;;;;;;10.63;48.97;99194.16;5038753;27;97849;-73
2021/04/29 00:23:44;;;;;;;31.73;17.63;;;;;;;10.56;48.87;99202.41;5050869;27;97989;-73
2021/04/29 00:26:10;;;;;;;28.42;16.00;;;;;;;10.45;49.10;99195.13;5037950;27;101548;-73
2021/04/29 00:28:35;;;;;;;27.55;16.35;;;;;;;10.40;49.44;99191.88;5038131;27;96626;-73
2021/04/29 00:31:01;;;;;;;33.25;16.27;;;;;;;10.28;49.84;99188.09;5051571;27;96866;-74
2021/04/29 00:33:27;;;;;;;30.65;16.83;;;;;;;10.32;49.50;99188.78;5037768;27;97841;-73
2021/04/29 00:35:52;;;;;;;39.10;17.83;;;;;;;10.20;49.75;99177.13;5037461;27;101597;-73
2021/04/29 00:38:18;;;;;;;29.85;15.98;;;;;;;10.21;49.48;99181.44;5038078;27;97364;-73
2021/04/29 00:40:44;;;;;;;34.42;17.35;;;;;;;10.16;49.80;99179.03;5017989;27;97266;-73
2021/04/29 00:43:13;;;;;;;26.85;15.68;;;;;;;10.15;49.87;99176.50;5026882;27;97416;-73
2021/04/29 00:45:39;;;;;;;26.17;15.63;;;;;;;10.06;50.08;99177.78;5057777;27;97916;-74
2021/04/29 00:48:05;;;;;;;31.35;16.98;;;;;;;10.06;49.98;99176.97;5024804;27;97046;-73
2021/04/29 00:50:30;;;;;;;34.63;17.13;;;;;;;10.07;50.18;99178.66;5016998;27;96954;-74
2021/04/29 00:52:56;;;;;;;30.70;17.15;;;;;;;10.09;49.81;99177.63;5016823;27;101626;-74
2021/04/29 00:55:22;;;;;;;29.70;17.60;;;;;;;10.10;49.76;99170.66;5054563;27;97529;-73
2021/04/29 00:57:47;;;;;;;33.63;17.25;;;;;;;9.99;50.34;99171.19;5041174;27;97312;-74
2021/04/29 01:00:14;;;;;;;35.85;16.77;;;;;;;10.01;50.54;99178.97;5017986;27;97030;-74
2021/04/29 01:02:48;;;;;;;33.53;17.73;;;;;;;9.92;50.44;99168.03;4999617;27;101083;-74
2021/04/29 01:05:18;;;;;;;27.48;17.75;;;;;;;9.95;50.07;99162.63;5024843;27;101126;-74
2021/04/29 01:07:46;;;;;;;32.17;16.50;;;;;;;10.06;50.20;99167.31;5036671;27;97147;-74
2021/04/29 01:10:34;;;;;;;31.73;17.27;;;;;;;9.94;50.04;99160.06;5034597;27;96845;-74
2021/04/29 01:13:11;;;;;;;35.40;17.40;;;;;;;9.88;50.60;99153.34;5034920;27;98114;-74
2021/04/29 01:15:39;;;;;;;28.02;17.05;;;;;;;9.91;50.15;99158.44;5016770;27;98092;-73
2021/04/29 01:18:04;;;;;;;31.38;16.70;;;;;;;9.86;50.30;99154.34;5034502;27;97111;-74
2021/04/29 01:20:48;;;;;;;30.30;16.45;;;;;;;9.87;50.00;99154.28;5021038;27;97027;-74
2021/04/29 01:23:31;;;;;;;33.03;17.05;;;;;;;9.90;50.07;99158.53;5033606;27;100914;-73
2021/04/29 01:26:00;;;;;;;28.13;16.73;;;;;;;9.85;50.20;99158.75;5034230;27;98377;-74
2021/04/29 01:28:27;;;;;;;35.50;17.15;;;;;;;9.84;50.39;99156.22;5017402;27;97110;-74
2021/04/29 01:30:53;;;;;;;34.92;17.80;;;;;;;9.88;50.39;99161.22;5016269;27;97332;-73
2021/04/29 01:33:19;;;;;;;34.88;18.80;;;;;;;9.83;50.10;99152.75;5016350;27;98131;-73
2021/04/29 01:35:45;;;;;;;35.13;19.17;;;;;;;9.79;50.56;99158.22;5016444;27;97910;-73
2021/04/29 01:38:11;;;;;;;33.83;18.90;;;;;;;9.73;50.51;99147.09;5018189;27;96647;-73
2021/04/29 01:40:37;;;;;;;36.65;18.90;;;;;;;9.70;50.51;99154.25;5033847;27;96788;-74
2021/04/29 01:43:04;;;;;;;35.80;18.92;;;;;;;9.64;50.91;99154.56;5017675;27;101121;-73
2021/04/29 01:45:29;;;;;;;34.95;18.80;;;;;;;9.60;51.27;99156.50;5033513;27;101125;-73
2021/04/29 01:47:55;;;;;;;30.13;17.85;;;;;;;9.70;50.98;99157.72;5025204;27;97159;-74
2021/04/29 01:50:21;;;;;;;36.50;19.27;;;;;;;9.76;50.88;99161.81;5018955;27;96824;-74
2021/04/29 01:52:46;;;;;;;38.22;19.13;;;;;;;9.78;50.79;99159.16;4999075;27;100782;-73
2021/04/29 01:55:12;;;;;;;37.25;19.92;;;;;;;9.78;50.27;99165.22;5031755;27;100739;-74
2021/04/29 01:57:38;;;;;;;40.28;19.10;;;;;;;9.72;50.77;99163.75;5036323;27;96648;-75
2021/04/29 02:00:10;;;;;;;35.15;20.20;;;;;;;9.71;50.66;99166.44;5057747;27;96804;-74
2021/04/29 02:02:36;;;;;;;34.47;20.27;;;;;;;9.70;50.99;99168.22;5056565;27;98002;-73
2021/04/29 02:05:02;;;;;;;39.80;21.13;;;;;;;9.73;50.98;99165.44;5040181;27;100953;-74
2021/04/29 02:07:28;;;;;;;39.55;21.48;;;;;;;9.71;50.79;99167.28;5040886;27;96835;-73
2021/04/29 02:09:54;;;;;;;36.70;20.98;;;;;;;9.77;51.00;99167.91;5019390;27;97277;-74
2021/04/29 02:12:19;;;;;;;43.97;20.70;;;;;;;9.74;51.15;99159.28;5041615;27;101109;-73
2021/04/29 02:14:52;;;;;;;44.30;22.02;;;;;;;9.61;51.50;99173.91;5056625;27;98118;-74
2021/04/29 02:17:41;;;;;;;37.75;20.63;;;;;;;9.63;51.00;99179.06;5036947;27;96834;-74
2021/04/29 02:20:07;;;;;;;36.92;20.52;;;;;;;9.67;51.16;99170.97;5020386;27;97235;-73
2021/04/29 02:22:41;;;;;;;32.72;19.40;;;;;;;9.65;51.43;99169.34;5031459;27;101294;-73
2021/04/29 02:25:12;;;;;;;35.95;20.35;;;;;;;9.70;51.43;99160.34;5057223;27;101259;-73
2021/04/29 02:27:39;;;;;;;38.23;19.13;;;;;;;9.65;51.04;99162.34;5019577;27;96700;-74
2021/04/29 02:30:10;;;;;;;43.40;21.38;;;;;;;9.57;51.40;99158.41;5003182;27;96863;-73
2021/04/29 02:32:36;;;;;;;35.08;19.80;;;;;;;9.45;51.90;99159.81;5009515;27;101599;-74
2021/04/29 02:35:05;;;;;;;40.28;21.08;;;;;;;9.44;52.42;99156.38;5023006;27;101345;-73
2021/04/29 02:37:31;;;;;;;38.20;19.85;;;;;;;9.48;52.53;99160.56;5023496;27;97283;-73
2021/04/29 02:39:57;;;;;;;46.05;21.05;;;;;;;9.41;51.80;99153.91;5069113;27;96818;-73
2021/04/29 02:42:23;;;;;;;37.58;20.25;;;;;;;9.36;52.35;99152.41;5060064;27;101666;-73
2021/04/29 02:44:48;;;;;;;42.47;21.00;;;;;;;9.37;52.23;99154.13;5058727;27;101065;-73
2021/04/29 02:47:15;;;;;;;37.05;20.65;;;;;;;9.34;52.38;99152.50;5042873;27;96832;-74
2021/04/29 02:49:41;;;;;;;39.92;21.83;;;;;;;9.28;52.05;99147.56;5059858;27;96758;-73
2021/04/29 02:52:09;;;;;;;34.80;20.83;;;;;;;9.23;51.97;99149.53;5060038;27;101017;-73
2021/04/29 02:54:34;;;;;;;39.90;21.77;;;;;;;9.22;52.42;99153.06;5076115;27;101704;-73
2021/04/29 02:57:00;;;;;;;49.50;21.33;;;;;;;9.23;52.12;99153.00;5076993;27;96988;-73
2021/04/29 02:59:26;;;;;;;38.33;21.92;;;;;;;9.21;52.49;99154.00;5060934;27;96785;-73
2021/04/29 03:01:51;;;;;;;38.42;21.20;;;;;;;9.26;52.05;99157.25;5059908;27;101095;-73
2021/04/29 03:04:17;;;;;;;36.60;20.42;;;;;;;9.22;52.57;99156.56;5076889;27;98140;-73
2021/04/29 03:06:42;;;;;;;38.65;21.48;;;;;;;9.16;52.92;99149.00;5059353;27;96731;-73
2021/04/29 03:09:08;;;;;;;37.78;20.65;;;;;;;9.12;52.54;99154.44;5060064;27;96783;-73
2021/04/29 03:11:37;;;;;;;41.83;23.42;;;;;;;9.09;52.40;99142.31;5051624;27;101147;-73
2021/04/29 03:14:03;;;;;;;38.55;21.02;;;;;;;9.11;52.81;99144.88;5032939;27;101170;-73
2021/04/29 03:16:29;;;;;;;39.33;20.52;;;;;;;9.09;52.49;99141.47;5038936;27;97339;-73
2021/04/29 03:18:55;;;;;;;44.13;21.98;;;;;;;9.01;53.09;99140.06;5055697;27;97218;-73
2021/04/29 03:21:20;;;;;;;43.70;22.38;;;;;;;8.86;53.31;99134.69;5046824;27;97573;-73
2021/04/29 03:23:46;;;;;;;39.13;21.40;;;;;;;8.88;53.05;99138.94;5074588;27;98283;-73
2021/04/29 03:26:12;;;;;;;37.97;21.40;;;;;;;8.84;53.58;99126.88;5039717;27;96962;-73
2021/04/29 03:28:37;;;;;;;48.05;21.90;;;;;;;8.84;53.55;99138.22;5039168;27;97302;-73
2021/04/29 03:31:03;;;;;;;39.40;22.35;;;;;;;8.76;54.05;99137.72;5038816;27;101577;-73
2021/04/29 03:33:28;;;;;;;38.25;20.30;;;;;;;8.80;53.51;99138.44;5038401;27;101584;-73
2021/04/29 03:35:54;;;;;;;43.28;21.60;;;;;;;8.77;53.61;99139.41;5055171;27;96754;-73
2021/04/29 03:38:19;;;;;;;45.35;21.98;;;;;;;8.84;53.24;99135.63;5055956;27;97064;-73
2021/04/29 03:40:45;;;;;;;36.22;20.90;;;;;;;8.83;53.19;99135.66;5035105;27;97887;-73
2021/04/29 03:43:11;;;;;;;42.72;20.88;;;;;;;8.79;53.77;99131.50;5018513;27;98102;-73
2021/04/29 03:45:37;;;;;;;50.55;22.45;;;;;;;8.83;53.58;99133.06;5021879;27;96653;-73
2021/04/29 03:48:03;;;;;;;41.92;22.00;;;;;;;8.78;53.53;99130.63;5035371;27;96852;-73
2021/04/29 03:50:29;;;;;;;43.80;20.98;;;;;;;8.77;53.76;99133.34;5021704;27;101241;-73
2021/04/29 03:52:54;;;;;;;40.60;20.98;;;;;;;8.82;53.32;99129.59;5051289;27;101472;-73
2021/04/29 03:55:20;;;;;;;41.42;21.73;;;;;;;8.79;53.54;99128.91;5005703;27;97335;-73
2021/04/29 03:57:46;;;;;;;40.45;19.58;;;;;;;8.94;53.23;99127.34;5031676;27;96799;-74
2021/04/29 04:00:13;;;;;;;38.13;19.63;;;;;;;8.95;53.30;99122.00;5038063;27;101225;-74
2021/04/29 04:02:38;;;;;;;36.28;19.23;;;;;;;9.04;53.11;99118.97;5021073;27;101137;-74
2021/04/29 04:05:05;;;;;;;42.70;19.10;;;;;;;9.11;53.18;99123.94;5074108;27;96624;-74
2021/04/29 04:07:31;;;;;;;38.88;19.25;;;;;;;9.21;52.39;99131.28;5039077;27;97252;-74
2021/04/29 04:09:56;;;;;;;42.13;20.33;;;;;;;9.24;52.87;99127.66;5054976;27;98476;-74
2021/04/29 04:12:22;;;;;;;37.65;18.85;;;;;;;9.40;52.28;99130.41;5023015;27;101436;-74
2021/04/29 04:14:47;;;;;;;39.15;19.77;;;;;;;9.50;52.40;99132.50;5035011;27;97143;-74
2021/04/29 04:17:13;;;;;;;40.72;17.95;;;;;;;9.55;52.02;99139.31;5018474;27;97157;-74
2021/04/29 04:19:38;;;;;;;35.53;18.48;;;;;;;9.61;51.87;99136.38;5017753;27;97906;-74
2021/04/29 04:22:04;;;;;;;33.42;18.60;;;;;;;9.75;51.88;99126.91;5018097;27;98251;-73
2021/04/29 04:24:29;;;;;;;35.45;18.08;;;;;;;9.87;51.80;99128.06;5034594;27;97090;-74
2021/04/29 04:26:55;;;;;;;32.60;17.85;;;;;;;9.98;51.24;99120.53;5010543;27;97490;-74
2021/04/29 04:29:21;;;;;;;39.13;17.30;;;;;;;10.05;51.16;99128.06;5058948;27;97837;-74
2021/04/29 04:31:46;;;;;;;34.17;17.88;;;;;;;10.16;51.36;99125.75;5033988;27;100549;-74
2021/04/29 04:34:12;;;;;;;38.95;16.60;;;;;;;10.26;51.21;99115.63;5018366;27;96934;-74
2021/04/29 04:36:37;;;;;;;36.45;17.27;;;;;;;10.34;50.99;99118.75;5010551;27;97197;-74
2021/04/29 04:39:04;;;;;;;30.08;16.23;;;;;;;10.47;50.86;99117.19;5057472;27;98973;-74
2021/04/29 04:41:30;;;;;;;35.35;17.80;;;;;;;10.52;50.59;99120.38;5038428;27;101034;-74
2021/04/29 04:43:55;;;;;;;29.17;15.93;;;;;;;10.50;50.55;99114.41;5020258;27;96921;-74
2021/04/29 04:46:21;;;;;;;31.45;17.27;;;;;;;10.49;50.95;99112.69;5021565;27;97301;-74
2021/04/29 04:48:46;;;;;;;46.05;17.90;;;;;;;10.68;50.43;99109.94;5053716;27;98567;-74
2021/04/29 04:51:12;;;;;;;28.27;15.60;;;;;;;10.62;50.52;99100.63;5037653;27;100851;-73
2021/04/29 04:53:38;;;;;;;31.83;16.48;;;;;;;10.82;50.36;99091.69;5036254;27;96647;-75
2021/04/29 04:56:04;;;;;;;27.92;16.92;;;;;;;10.84;50.57;99107.31;5046099;27;96820;-74
2021/04/29 04:58:30;;;;;;;34.08;16.85;;;;;;;10.92;50.15;99097.25;5054758;27;98068;-74
2021/04/29 05:00:55;;;;;;;29.08;16.55;;;;;;;11.14;49.80;99114.44;5035862;27;102677;-74
2021/04/29 05:03:21;;;;;;;32.47;16.77;;;;;;;11.40;49.69;99107.75;5039672;27;97340;-74
2021/04/29 05:05:46;;;;;;;27.88;16.85;;;;;;;11.54;49.12;99103.38;5038142;27;96829;-74
2021/04/29 05:08:12;;;;;;;33.28;16.88;;;;;;;11.79;49.08;99099.34;5055305;27;98052;-74
2021/04/29 05:10:38;;;;;;;36.88;18.02;;;;;;;12.05;48.47;99091.75;5057520;27;100761;-74
2021/04/29 05:13:05;;;;;;;38.88;17.08;;;;;;;12.27;48.00;99093.94;5045935;27;97249;-74
2021/04/29 05:15:31;;;;;;;31.95;16.73;;;;;;;12.64;47.30;99098.63;5035725;27;96895;-73
2021/04/29 05:17:57;;;;;;;30.40;18.58;;;;;;;12.72;47.39;99094.69;5039689;27;101082;-74
2021/04/29 05:20:23;;;;;;;32.75;16.75;;;;;;;13.36;46.28;99091.47;5052753;27;97922;-73
2021/04/29 05:22:50;;;;;;;36.47;17.95;;;;;;;13.65;45.96;99083.47;5039712;27;98204;-73
2021/04/29 05:25:16;;;;;;;32.47;17.90;;;;;;;13.84;45.46;99084.84;5031632;27;97128;-73
2021/04/29 05:27:41;;;;;;;28.90;16.60;;;;;;;14.36;44.66;99081.31;5059153;27;98173;-73
2021/04/29 05:30:09;;;;;;;32.00;17.38;;;;;;;14.85;44.03;99077.91;5044944;27;101170;-74
2021/04/29 05:32:35;;;;;;;31.58;16.27;;;;;;;15.33;42.77;99070.00;5056607;27;97099;-74
2021/04/29 05:35:01;;;;;;;26.60;15.77;;;;;;;15.63;42.54;99067.75;5056392;27;97473;-74
2021/04/29 05:37:26;;;;;;;26.35;15.55;;;;;;;16.06;42.29;99069.00;5073660;27;98077;-74
2021/04/29 05:39:53;;;;;;;27.15;15.88;;;;;;;16.11;41.89;99068.63;5072270;27;97798;-74
2021/04/29 05:42:18;;;;;;;27.00;15.02;;;;;;;16.38;41.67;99073.63;5051632;27;96961;-74
2021/04/29 05:44:44;;;;;;;30.23;16.10;;;;;;;16.32;41.92;99074.06;5050110;27;96934;-74
2021/04/29 05:47:10;;;;;;;30.38;15.15;;;;;;;16.42;42.07;99075.06;5025173;27;99726;-74
2021/04/29 05:49:35;;;;;;;27.80;15.25;;;;;;;16.34;42.03;99075.63;5028180;27;101359;-74
2021/04/29 05:52:01;;;;;;;23.77;14.00;;;;;;;16.29;42.69;99067.22;5056166;27;96731;-74
2021/04/29 05:54:26;;;;;;;23.13;14.77;;;;;;;15.90;43.51;99060.53;5052479;27;97639;-75
2021/04/29 05:56:52;;;;;;;28.23;15.75;;;;;;;15.75;44.30;99057.25;5049776;27;101359;-75
2021/04/29 05:59:18;;;;;;;24.60;13.98;;;;;;;16.43;43.19;99058.19;5073785;27;97875;-75
2021/04/29 06:01:44;;;;;;;23.55;14.48;;;;;;;16.66;42.81;99059.03;5043883;27;96860;-75
2021/04/29 06:04:10;;;;;;;22.13;14.55;;;;;;;16.38;43.33;99057.72;5060837;27;97239;-75
2021/04/29 06:06:35;;;;;;;25.45;14.15;;;;;;;16.70;43.10;99060.50;5033996;27;102742;-73
2021/04/29 06:09:01;;;;;;;23.13;14.85;;;;;;;16.22;43.82;99056.25;5052615;27;97378;-75
2021/04/29 06:11:26;;;;;;;21.42;13.93;;;;;;;16.11;44.43;99060.69;5051531;27;97574;-75
2021/04/29 06:13:52;;;;;;;22.40;14.68;;;;;;;15.32;45.84;99069.16;5047214;27;96823;-75
2021/04/29 06:16:17;;;;;;;21.90;14.38;;;;;;;15.15;46.43;99070.44;5055981;27;100744;-75
2021/04/29 06:18:43;;;;;;;24.52;14.90;;;;;;;15.14;46.93;99063.44;5073411;27;98020;-75
2021/04/29 06:21:09;;;;;;;30.35;16.75;;;;;;;14.79;47.88;99062.50;5057150;27;96751;-75
2021/04/29 06:23:35;;;;;;;25.05;15.32;;;;;;;14.96;47.83;99061.28;5039736;27;97416;-75
2021/04/29 06:26:00;;;;;;;26.17;15.18;;;;;;;15.57;46.73;99060.28;5066808;27;97896;-75
2021/04/29 06:28:29;;;;;;;31.25;15.93;;;;;;;16.38;45.37;99057.72;5036991;27;100138;-75
2021/04/29 06:30:55;;;;;;;24.17;15.05;;;;;;;17.30;43.76;99058.34;5069356;27;97965;-73
2021/04/29 06:33:23;;;;;;;29.38;15.50;;;;;;;17.52;43.67;99055.63;5048116;27;97305;-74
2021/04/29 06:35:53;;;;;;;21.73;14.82;;;;;;;17.29;43.91;99057.50;5027332;27;101326;-74
2021/04/29 06:38:18;;;;;;;25.20;14.52;;;;;;;17.01;44.61;99053.59;5052938;27;97955;-73
2021/04/29 06:40:44;;;;;;;21.77;14.18;;;;;;;17.09;44.61;99039.75;5042570;27;97156;-73
2021/04/29 06:43:10;;;;;;;23.33;15.45;;;;;;;17.04;45.08;99039.25;5061485;27;96765;-74
2021/04/29 06:45:35;;;;;;;26.58;15.80;;;;;;;16.86;45.66;99038.94;5077818;27;98010;-73
2021/04/29 06:48:01;;;;;;;23.10;14.85;;;;;;;16.45;46.94;99046.53;5038679;27;101579;-74
2021/04/29 06:50:27;;;;;;;28.10;14.50;;;;;;;16.17;47.93;99039.88;5074453;27;96744;-73
2021/04/29 06:52:52;;;;;;;23.08;15.57;;;;;;;16.96;46.32;99024.84;5039888;27;97683;-73
2021/04/29 06:55:18;;;;;;;26.90;14.43;;;;;;;17.67;45.35;99023.47;5037484;27;98230;-73
2021/04/29 06:57:43;;;;;;;29.17;15.60;;;;;;;17.09;46.23;99021.19;5019116;27;101383;-73
2021/04/29 07:00:09;;;;;;;22.38;15.10;;;;;;;16.83;46.88;99025.94;5037741;27;96757;-73
2021/04/29 07:02:35;;;;;;;20.65;14.63;;;;;;;16.57;47.45;99025.34;5037334;27;97286;-74
2021/04/29 07:05:00;;;;;;;23.67;14.27;;;;;;;16.42;48.06;99035.34;5034055;27;101274;-74
2021/04/29 07:07:26;;;;;;;31.73;15.55;;;;;;;16.42;47.91;99030.03;5020434;27;100975;-74
2021/04/29 07:09:52;;;;;;;23.38;15.13;;;;;;;16.80;47.37;99028.84;5043045;27;96791;-74
2021/04/29 07:12:18;;;;;;;26.02;15.93;;;;;;;17.66;45.95;99027.94;5039906;27;97216;-74
2021/04/29 07:14:43;;;;;;;20.20;12.82;;;;;;;19.31;42.61;99015.34;5072841;27;102285;-74
2021/04/29 07:17:09;;;;;;;23.13;13.98;;;;;;;19.96;41.51;99022.78;5074578;27;97563;-74
2021/04/29 07:19:35;;;;;;;23.48;13.45;;;;;;;18.44;43.85;99034.59;5057339;27;96913;-74
2021/04/29 07:22:01;;;;;;;18.50;12.52;;;;;;;17.84;44.95;99025.59;5073473;27;97770;-73
2021/04/29 07:24:26;;;;;;;22.50;12.93;;;;;;;17.62;45.44;99023.84;5074238;27;98113;-75
2021/04/29 07:26:52;;;;;;;22.30;12.98;;;;;;;17.35;46.27;99030.50;5073527;27;97955;-75
2021/04/29 07:29:17;;;;;;;22.90;13.90;;;;;;;17.33;46.51;99027.09;5057150;27;96680;-75
2021/04/29 07:31:43;;;;;;;22.25;13.18;;;;;;;17.02;47.29;99034.09;5049234;27;97116;-74
2021/04/29 07:34:11;;;;;;;17.73;11.60;;;;;;;16.81;47.61;99035.81;5043708;27;98214;-75
2021/04/29 07:36:36;;;;;;;20.45;11.95;;;;;;;16.59;47.70;99031.38;5052590;27;101083;-75
2021/04/29 07:39:04;;;;;;;20.45;11.98;;;;;;;16.48;47.90;99030.38;5037606;27;96904;-75
2021/04/29 07:41:29;;;;;;;18.98;12.23;;;;;;;16.40;48.17;99016.06;5045389;27;96801;-75
2021/04/29 07:43:57;;;;;;;20.23;11.95;;;;;;;16.40;48.32;99022.19;5054782;27;98737;-75
2021/04/29 07:46:23;;;;;;;22.77;11.50;;;;;;;16.35;48.01;99021.75;5039267;27;100626;-75
2021/04/29 07:48:48;;;;;;;24.60;12.93;;;;;;;16.23;48.01;99028.84;5042140;27;96711;-75
2021/04/29 07:51:14;;;;;;;17.92;10.77;;;;;;;16.13;48.74;99027.00;5059239;27;96891;-75
2021/04/29 07:53:39;;;;;;;17.67;11.38;;;;;;;15.98;48.94;99031.69;5051848;27;100625;-76
2021/04/29 07:56:05;;;;;;;23.88;11.95;;;;;;;15.86;49.65;99024.69;5041766;27;100310;-74
2021/04/29 07:58:31;;;;;;;15.18;10.98;;;;;;;15.72;49.74;99021.28;5039983;27;97128;-74
2021/04/29 08:00:57;;;;;;;18.42;11.35;;;;;;;15.69;49.81;99025.97;5029626;27;97735;-74
2021/04/29 08:03:23;;;;;;;27.58;12.27;;;;;;;15.56;49.79;99031.28;5029362;27;101421;-74
2021/04/29 08:05:49;;;;;;;19.55;11.70;;;;;;;15.49;50.26;99027.44;5055866;27;97378;-74
2021/04/29 08:08:15;;;;;;;16.92;11.43;;;;;;;15.45;50.72;99033.91;5060565;27;97415;-73
2021/04/29 08:10:41;;;;;;;16.55;10.73;;;;;;;15.41;51.50;99035.91;5073415;27;97554;-74
2021/04/29 08:13:09;;;;;;;17.25;10.98;;;;;;;15.43;51.09;99030.53;5043444;27;101502;-75
2021/04/29 08:15:35;;;;;;;20.52;9.98;;;;;;;15.48;51.24;99041.63;5047421;27;98501;-74
2021/04/29 08:18:00;;;;;;;16.92;11.70;;;;;;;15.51;51.18;99036.09;5053817;27;97508;-74
2021/04/29 08:20:26;;;;;;;17.08;10.63;;;;;;;15.49;51.51;99045.94;5067670;27;96853;-74
2021/04/29 08:22:52;;;;;;;22.20;11.88;;;;;;;15.49;51.97;99061.81;5037737;27;100980;-73
2021/04/29 08:25:18;;;;;;;21.88;12.05;;;;;;;15.52;51.96;99054.47;5036801;27;101020;-73
2021/04/29 08:27:45;;;;;;;17.40;11.10;;;;;;;15.56;52.17;99058.59;5064801;27;97151;-75
2021/04/29 08:30:13;;;;;;;17.80;11.75;;;;;;;15.56;52.22;99061.25;5052365;27;97764;-74
2021/04/29 08:32:39;;;;;;;18.92;11.55;;;;;;;15.67;52.14;99068.34;5043573;27;101142;-73
2021/04/29 08:35:07;;;;;;;20.02;11.00;;;;;;;15.99;51.57;99062.47;5071243;27;99974;-73
2021/04/29 08:37:35;;;;;;;20.55;11.43;;;;;;;16.19;51.31;99066.25;5066269;27;97582;-74
2021/04/29 08:40:02;;;;;;;19.20;10.60;;;;;;;16.27;51.15;99074.44;5049746;27;97583;-74
2021/04/29 08:42:29;;;;;;;16.48;11.05;;;;;;;16.78;49.73;99071.34;5052319;27;101393;-75
2021/04/29 08:44:56;;;;;;;15.60;9.93;;;;;;;17.77;47.41;99062.41;5049055;27;97542;-74
2021/04/29 08:47:24;;;;;;;18.67;10.70;;;;;;;18.57;46.01;99052.94;5086060;27;96714;-76
2021/04/29 08:49:50;;;;;;;17.13;10.02;;;;;;;18.38;45.67;99050.19;5053857;27;96860;-75
2021/04/29 08:52:16;;;;;;;17.42;10.13;;;;;;;19.18;44.48;99047.56;5037006;27;101970;-74
2021/04/29 08:54:47;;;;;;;17.83;10.10;;;;;;;19.95;42.92;99055.69;5034000;27;101480;-73
2021/04/29 08:57:13;;;;;;;18.70;11.45;;;;;;;20.62;41.87;99048.53;5039147;27;96993;-75
2021/04/29 08:59:39;;;;;;;20.25;10.07;;;;;;;21.48;40.38;99063.19;5067236;27;98011;-75
2021/04/29 09:02:05;;;;;;;14.63;10.55;;;;;;;22.03;39.16;99042.63;5065332;27;101292;-75
2021/04/29 09:04:39;;;;;;;19.80;10.25;;;;;;;22.38;38.66;99060.41;5036034;27;100807;-74
2021/04/29 09:07:15;;;;;;;17.58;10.65;;;;;;;22.80;38.04;99056.94;5043145;27;97574;-75
2021/04/29 09:09:45;;;;;;;14.32;9.77;;;;;;;23.18;37.11;99046.72;5045694;27;97400;-75
2021/04/29 09:12:11;;;;;;;20.57;10.63;;;;;;;23.84;36.45;99039.63;5070592;27;98271;-74
2021/04/29 09:14:42;;;;;;;19.65;11.10;;;;;;;24.38;35.45;99034.53;5047934;27;101074;-73
2021/04/29 09:17:08;;;;;;;18.25;10.60;;;;;;;24.39;35.63;99038.88;5065638;27;96829;-73
2021/04/29 09:19:36;;;;;;;16.92;10.77;;;;;;;24.22;35.71;99031.88;5049783;27;97184;-75
2021/04/29 09:22:04;;;;;;;15.50;10.50;;;;;;;23.46;36.87;99044.59;5044993;27;101991;-74
2021/04/29 09:24:34;;;;;;;14.07;10.43;;;;;;;23.10;37.45;99031.50;5033786;27;97721;-74
2021/04/29 09:27:16;;;;;;;13.93;9.85;;;;;;;23.08;37.96;99038.00;5058389;27;97369;-75
2021/04/29 09:30:08;;;;;;;23.33;10.50;;;;;;;22.72;37.79;99033.69;5066235;27;97221;-74
2021/04/29 09:32:35;;;;;;;16.40;9.88;;;;;;;22.27;37.72;99026.78;5063049;27;98051;-74
2021/04/29 09:35:05;;;;;;;15.75;10.07;;;;;;;22.07;38.36;99033.28;5044721;27;98052;-73
2021/04/29 09:37:33;;;;;;;17.17;11.85;;;;;;;22.11;38.36;99026.66;5034238;27;97289;-73
2021/04/29 09:40:04;;;;;;;21.23;11.25;;;;;;;21.99;38.56;99027.88;5053084;27;97041;-73
2021/04/29 09:42:30;;;;;;;;;;;;;;;21.82;39.27;99034.97;5065898;27;97998;-73
2021/04/29 09:44:56;;;;;;;22.02;10.85;;;;;;;21.92;39.12;99031.19;5064788;27;98110;-74
2021/04/29 09:47:22;;;;;;;20.98;11.55;;;;;;;21.76;39.46;99025.75;5047864;27;97370;-73
2021/04/29 09:49:47;;;;;;;23.42;11.73;;;;;;;21.69;39.70;99038.03;5038572;27;96879;-74
2021/04/29 09:52:17;;;;;;;21.10;10.75;;;;;;;21.63;40.40;99041.31;5042461;27;98427;-74
2021/04/29 09:54:43;;;;;;;26.10;12.27;;;;;;;21.44;40.78;99042.31;5079597;27;98308;-73
2021/04/29 09:57:14;;;;;;;25.80;12.40;;;;;;;21.35;41.16;99045.84;5069575;27;97228;-72
2021/04/29 09:59:49;;;;;;;24.42;12.63;;;;;;;21.27;40.92;99049.28;5054357;27;96981;-74
2021/04/29 10:02:16;;;;;;;30.15;12.77;;;;;;;21.13;41.26;99041.81;5048737;27;101243;-73
2021/04/29 10:04:43;;;;;;;28.80;12.93;;;;;;;21.02;41.99;99050.84;5048859;27;100960;-73
2021/04/29 10:07:09;;;;;;;19.98;12.82;;;;;;;20.68;42.15;99056.78;5042345;27;97454;-73
2021/04/29 10:09:35;;;;;;;18.17;13.90;;;;;;;20.18;43.17;99050.88;5039375;27;96890;-73
2021/04/29 10:12:18;;;;;;;23.88;13.77;;;;;;;19.89;43.90;99057.09;5042827;27;101410;-73
2021/04/29 10:14:45;;;;;;;22.17;13.40;;;;;;;19.64;44.54;99051.38;5060849;27;98480;-73
2021/04/29 10:17:13;;;;;;;26.15;15.02;;;;;;;19.45;45.35;99054.84;5061613;27;97351;-73
2021/04/29 10:19:41;;;;;;;20.90;13.90;;;;;;;19.29;46.66;99054.56;5044610;27;96830;-73
2021/04/29 10:22:08;;;;;;;21.95;14.43;;;;;;;19.20;47.11;99055.41;5062824;27;101315;-73
2021/04/29 10:24:35;;;;;;;22.77;14.18;;;;;;;18.85;47.91;99046.09;5047347;27;101261;-73
2021/04/29 10:27:06;;;;;;;26.08;14.27;;;;;;;18.70;48.66;99042.94;5050708;27;98424;-73
2021/04/29 10:29:32;;;;;;;25.77;14.05;;;;;;;18.58;49.21;99037.84;5031274;27;97037;-73
2021/04/29 10:31:59;;;;;;;21.52;14.23;;;;;;;18.43;50.49;99048.00;5059613;27;98142;-73
2021/04/29 10:34:47;;;;;;;34.47;21.45;;;;;;;18.23;51.41;99042.56;5066391;27;98453;-74
2021/04/29 10:37:24;;;;;;;27.80;16.30;;;;;;;18.19;51.91;99035.03;5043196;27;98320;-74
2021/04/29 10:39:57;;;;;;;28.30;16.63;;;;;;;18.03;51.42;99030.16;5038142;27;96848;-74
2021/04/29 10:42:24;;;;;;;28.00;16.58;;;;;;;17.94;51.33;99026.47;5036723;27;101395;-73
2021/04/29 10:44:52;;;;;;;24.35;15.80;;;;;;;17.86;51.11;99032.47;5005294;27;101307;-74
2021/04/29 10:47:29;;;;;;;28.85;16.85;;;;;;;17.95;52.50;99035.28;5034241;27;97080;-73
2021/04/29 10:50:14;;;;;;;31.33;16.00;;;;;;;17.97;51.68;99034.19;5024686;27;97383;-73
2021/04/29 10:52:45;;;;;;;27.45;15.82;;;;;;;18.10;51.29;99036.66;5063966;27;98516;-74
2021/04/29 10:55:24;;;;;;;26.75;16.55;;;;;;;18.18;50.21;99036.84;5047076;27;98037;-73
2021/04/29 10:57:52;;;;;;;26.60;17.10;;;;;;;18.26;49.41;99033.50;5033061;27;97672;-73
2021/04/29 11:00:18;;;;;;;26.08;15.82;;;;;;;18.39;49.14;99036.78;5015207;27;96965;-73
2021/04/29 11:02:44;;;;;;;25.48;15.45;;;;;;;18.38;48.86;99040.41;5043829;27;97502;-73
2021/04/29 11:05:22;;;;;;;25.83;16.25;;;;;;;18.50;48.97;99026.09;5033175;27;97830;-73
2021/04/29 11:07:48;;;;;;;31.35;16.52;;;;;;;18.62;49.12;99026.00;5042026;27;97169;-74
2021/04/29 11:10:14;;;;;;;24.40;15.70;;;;;;;18.69;48.20;99051.03;5051983;27;97713;-72
2021/04/29 11:12:50;;;;;;;26.58;15.68;;;;;;;18.68;47.63;99026.28;5048764;27;101373;-72
2021/04/29 11:15:32;;;;;;;32.05;16.45;;;;;;;18.89;47.24;99034.19;5069592;27;98074;-72
2021/04/29 11:18:19;;;;;;;23.25;14.90;;;;;;;18.94;47.27;99039.13;5033071;27;96943;-72